You are listening to:
YBCG Tower - Gold Coast City, Queensland, Australia

YBCG 020100Z AUTO 05009KT 9999 // OVC115 28/22 Q1001 RF00.0/000.0

If stream doesn't start automatically press the play button
If stream stops then reload player then press play